Latest Coastal Weather Observations for Proserpine

IDQ60701

Issued at 8:42 pm EST Thursday 26 May 2016 (issued every 10 minutes, with the page automatically refreshed every 10 minutes)

About coastal observations | Map of coastal stations | Coastal observations for QLD | Marine services | Other Formats
Station Details ID: 033247 Name: PROSERPINE AIRPORT Lat: -20.49 Lon: 148.56 Height: 19.7 m
Data from the previous 72 hours. | See also: Recent months at Proserpine
Date/Time
EST
Temp

°C
Wind Pressure Rain
since 9am
mm
Weather Cloud Vis
km
Sea
Height
m
Swell
Dir
 
Speed
knots
Gust
knots
hPa Trend Height
m
Period
s
Dir
26/08:30pm 20.5 W 2 4 1014.8 - 0.0 - - 10 - - - -
26/08:00pm 21.1 NNW 2 4 1014.6 - 0.0 - - 10 - - - -
26/07:30pm 21.7 N 4 5 1014.5 - 0.0 - - 10 - - - -
26/07:00pm 22.1 NNW 5 6 1014.0 - 0.0 - - 10 - - - -
26/06:30pm 22.6 N 3 4 1013.7 - 0.0 - - 10 - - - -
26/06:00pm 23.2 N 5 7 1013.1 - 0.0 - - 10 - - - -
26/05:30pm 24.2 N 5 8 1012.9 - 0.0 - - 10 - - - -
26/05:00pm 25.6 N 6 8 1012.6 - 0.0 - - 10 - - - -
26/04:30pm 26.6 NNE 8 12 1012.3 - 0.0 - - 10 - - - -
26/04:00pm 27.6 N 8 11 1012.3 - 0.0 - - 10 - - - -
26/03:30pm 28.6 NNE 7 10 1012.5 - 0.0 - - 10 - - - -
26/03:00pm 29.1 ENE 4 7 1012.7 - 0.0 - - 10 - - - -
26/02:30pm 29.2 NNE 6 9 1013.2 - 0.0 - - 10 - - - -
26/02:00pm 29.2 N 4 7 1013.6 - 0.0 - - 10 - - - -
26/01:30pm 28.4 NW 3 5 1014.1 - 0.0 - Partly cloudy 10 - - - -
26/01:00pm 28.4 NNE 5 8 1014.7 - 0.0 - - 10 - - - -
26/12:30pm 28.0 NNE 6 8 1015.2 - 0.0 - Partly cloudy 10 - - - -
26/12:00pm 26.8 S 3 6 1015.6 - 0.0 - Partly cloudy 10 - - - -
26/11:30am 26.8 NW 2 6 1016.1 - 0.0 - Partly cloudy 10 - - - -
26/11:00am 26.2 N 5 6 1016.6 - 0.0 - Partly cloudy 10 - - - -
26/10:30am 25.8 E 5 7 1016.8 - 0.0 - Partly cloudy 10 - - - -
26/10:00am 25.4 ENE 3 6 1017.0 - 0.0 - - 10 - - - -
26/09:30am 24.4 S 4 6 1017.2 - 0.0 - - 10 - - - -
26/09:00am 23.1 CALM 0 0 1017.2 - 0.0 - - 10 - - - -
26/08:30am 21.2 CALM 0 0 1017.0 - 0.0 - - 10 - - - -
26/08:00am 19.3 CALM 0 0 1016.8 - 0.0 - - 10 - - - -
26/07:37am 17.8 CALM 0 0 1016.8 - 0.0 - - 10 - - - -
26/07:30am 17.2 CALM 0 0 1016.7 - 0.0 - - 8 - - - -
26/07:13am 16.6 CALM 0 0 1016.9 - 0.0 - - 4 - - - -
26/07:00am 15.8 CALM 0 0 1016.8 - 0.0 - - 10 - - - -
26/06:49am 15.7 CALM 0 0 1016.6 - 0.0 - - 10 - - - -
26/06:30am 15.6 CALM 0 0 1016.4 - 0.0 - - 5 - - - -
26/06:03am 15.7 CALM 0 0 1016.1 - 0.0 - - 5 - - - -
26/06:00am 15.8 CALM 0 0 1016.1 - 0.0 - - 10 - - - -
26/05:30am 16.2 CALM 0 0 1016.1 - 0.0 - - 9 - - - -
26/05:11am 15.9 CALM 0 0 1016.0 - 0.0 - - 10 - - - -
26/05:00am 16.7 CALM 0 0 1016.0 - 0.0 - Partly cloudy 3 - - - -
26/04:30am 17.0 CALM 0 0 1015.9 - 0.0 - - 2 - - - -
26/04:27am 17.1 CALM 0 0 1015.9 - 0.0 - - 4 - - - -
26/04:00am 17.3 CALM 0 0 1015.8 - 0.0 - - 10 - - - -
26/03:30am 17.3 CALM 0 0 1015.9 - 0.0 - - 10 - - - -
26/03:00am 17.8 CALM 0 0 1015.9 - 0.0 - - 10 - - - -
26/02:30am 17.8 CALM 0 0 1016.0 - 0.0 - - 10 - - - -
26/02:00am 17.6 CALM 0 0 1016.2 - 0.0 - - 10 - - - -
26/01:30am 18.2 SSW 2 3 1016.3 - 0.0 - - 10 - - - -
26/01:00am 18.1 SSW 4 5 1016.8 - 0.0 - - 10 - - - -
26/12:30am 18.5 CALM 0 0 1016.8 - 0.0 - - 10 - - - -
26/12:08am 18.7 SSW 3 4 1016.7 - 0.0 - Partly cloudy 10 - - - -
26/12:00am 18.9 SSW 3 4 1016.8 - 0.0 - Partly cloudy 10 - - - -
 
Date/Time
EST
Temp

°C
Wind Pressure Rain
since 9am
mm
Weather Cloud Vis
km
Sea
Height
m
Swell
Dir
 
Speed
knots
Gust
knots
hPa Trend Height
m
Period
s
Dir
25/11:30pm 19.1 SW 3 4 1017.1 - 0.0 - Partly cloudy 10 - - - -
25/11:00pm 19.3 SSW 1 4 1017.2 - 0.0 - Partly cloudy 10 - - - -
25/10:51pm 19.2 SSW 3 4 1017.3 - 0.0 - Partly cloudy 10 - - - -
25/10:30pm 19.2 SSW 3 3 1017.4 - 0.0 - Partly cloudy 10 - - - -
25/10:00pm 19.6 CALM 0 0 1017.4 - 0.0 - - 10 - - - -
25/09:30pm 20.0 CALM 0 0 1017.5 - 0.0 - Partly cloudy 10 - - - -
25/09:16pm 19.9 SSW 4 5 1017.6 - 0.0 - Partly cloudy 10 - - - -
25/09:02pm 20.3 SSW 5 6 1017.5 - 0.0 - Partly cloudy 10 - - - -
25/09:00pm 20.3 SSW 5 6 1017.5 - 0.0 - Cloudy 10 - - - -
25/08:30pm 20.1 SSW 6 7 1017.2 - 0.0 - Partly cloudy 10 - - - -
25/08:00pm 20.2 CALM 0 0 1017.0 - 0.0 - - 10 - - - -
25/07:30pm 20.7 CALM 0 0 1016.7 - 0.0 - - 10 - - - -
25/07:00pm 21.3 S 3 4 1016.3 - 0.0 - Partly cloudy 10 - - - -
25/06:30pm 21.7 SE 4 4 1015.8 - 0.0 - - 10 - - - -
25/06:00pm 22.1 ESE 5 6 1015.5 - 0.0 - - 10 - - - -
25/05:30pm 23.1 ESE 5 7 1015.3 - 0.0 - - 10 - - - -
25/05:00pm 24.1 ESE 6 7 1015.2 - 0.0 - - 10 - - - -
25/04:30pm 24.8 ESE 9 13 1014.9 - 0.0 - - 10 - - - -
25/04:00pm 26.0 ESE 10 13 1014.5 - 0.0 - - 10 - - - -
25/03:30pm 26.5 ESE 8 10 1014.6 - 0.0 - - 10 - - - -
25/03:00pm 27.1 ENE 8 12 1014.7 - 0.0 - Clear 10 - - - -
25/02:30pm 26.8 ESE 9 14 1014.5 - 0.0 - - 10 - - - -
25/02:00pm 27.1 ESE 10 13 1014.5 - 0.0 - - 10 - - - -
25/01:30pm 27.3 SE 10 14 1014.9 - 0.0 - - 10 - - - -
25/01:00pm 26.8 ESE 9 14 1015.5 - 0.0 - Partly cloudy 10 - - - -
25/12:30pm 26.7 ESE 9 13 1016.0 - 0.0 - Partly cloudy 10 - - - -
25/12:00pm 26.6 ESE 8 12 1016.6 - 0.0 - Mostly clear 10 - - - -
25/11:30am 25.6 ESE 7 10 1017.1 - 0.0 - - 10 - - - -
25/11:00am 25.2 SE 6 9 1017.5 - 0.0 - - 10 - - - -
25/10:30am 24.1 SSE 4 5 1017.6 - 0.0 - - 10 - - - -
25/10:00am 23.1 SW 5 6 1018.2 - 0.0 - - 10 - - - -
25/09:30am 22.7 SE 1 4 1017.6 - 0.0 - - 10 - - - -
25/09:00am 21.2 CALM 0 3 1017.5 - 0.0 - - 10 - - - -
25/08:30am 19.6 CALM 0 0 1017.1 - 0.0 - - 10 - - - -
25/08:00am 18.7 CALM 0 0 1016.9 - 0.0 - - 10 - - - -
25/07:30am 18.1 N 2 3 1016.8 - 0.0 - - 10 - - - -
25/07:00am 17.7 CALM 0 0 1016.6 - 0.0 - - 10 - - - -
25/06:30am 17.8 CALM 0 1 1016.4 - 0.0 - - 10 - - - -
25/06:00am 17.5 SW 4 5 1016.1 - 0.0 - Cloudy 10 - - - -
25/05:30am 17.6 CALM 0 0 1015.4 - 0.0 - - 10 - - - -
25/05:00am 17.6 N 4 5 1015.5 - 0.0 - - 10 - - - -
25/04:30am 17.6 S 3 4 1015.3 - 0.0 - - 10 - - - -
25/04:00am 17.3 SSW 4 5 1015.4 - 0.0 - - 10 - - - -
25/03:30am 17.8 WNW 3 4 1015.8 - 0.0 - - 10 - - - -
25/03:00am 18.1 CALM 0 0 1015.7 - 0.0 - Mostly clear 10 - - - -
25/02:30am 18.1 SSW 4 5 1015.9 - 0.0 - Partly cloudy 10 - - - -
25/02:00am 18.1 CALM 0 0 1016.3 - 0.0 - Partly cloudy 10 - - - -
25/01:30am 18.4 CALM 0 0 1016.9 - 0.0 - Cloudy 10 - - - -
25/01:00am 18.3 CALM 0 3 1017.2 - 0.0 - Cloudy 10 - - - -
25/12:30am 18.2 SW 1 3 1017.0 - 0.0 - Partly cloudy 10 - - - -
25/12:00am 18.3 S 3 4 1017.1 - 0.0 - - 10 - - - -
 
Date/Time
EST
Temp

°C
Wind Pressure Rain
since 9am
mm
Weather Cloud Vis
km
Sea
Height
m
Swell
Dir
 
Speed
knots
Gust
knots
hPa Trend Height
m
Period
s
Dir
24/11:30pm 18.2 CALM 0 0 1017.5 - 0.0 - - 10 - - - -
24/11:00pm 18.9 S 4 5 1017.4 - 0.0 - - 10 - - - -
24/10:30pm 18.8 CALM 0 0 1017.7 - 0.0 - - 10 - - - -
24/10:00pm 19.1 CALM 0 0 1017.9 - 0.0 - - 10 - - - -
24/09:30pm 19.7 CALM 0 0 1017.8 - 0.0 - - 10 - - - -
24/09:00pm 19.6 W 3 4 1017.8 - 0.0 - - 10 - - - -
24/08:30pm 20.0 SSW 3 4 1017.6 - 0.0 - - 10 - - - -
24/08:00pm 19.9 SSW 7 7 1017.4 - 0.0 - - 10 - - - -
24/07:30pm 20.2 SSW 5 5 1017.1 - 0.0 - - 10 - - - -
24/07:00pm 21.2 S 5 7 1016.9 - 0.0 - - 10 - - - -
24/06:30pm 22.0 SE 4 5 1016.9 - 0.0 - - 10 - - - -
24/06:00pm 22.4 SE 4 5 1016.6 - 0.0 - - 10 - - - -
24/05:30pm 23.3 SE 4 5 1016.2 - 0.0 - - 10 - - - -
24/05:00pm 24.7 ESE 7 8 1015.8 - 0.0 - - 10 - - - -
24/04:30pm 25.9 E 7 11 1015.8 - 0.0 - - 10 - - - -
24/04:00pm 26.8 E 9 11 1015.7 - 0.0 - - 10 - - - -
24/03:30pm 27.1 E 8 10 1015.8 - 0.0 - Partly cloudy 10 - - - -
24/03:00pm 27.6 E 7 11 1015.9 - 0.0 - - 10 - - - -
24/02:30pm 27.6 E 9 12 1015.5 - 0.0 - - 10 - - - -
24/02:00pm 27.3 ESE 9 12 1015.5 - 0.0 - - 10 - - - -
24/01:30pm 27.6 E 10 13 1015.6 - 0.0 - - 10 - - - -
24/01:00pm 27.4 SE 9 14 1015.8 - 0.0 - - 10 - - - -
24/12:30pm 27.4 ESE 8 12 1016.4 - 0.0 - - 10 - - - -
24/12:00pm 27.3 ESE 9 13 1016.7 - 0.0 - - 10 - - - -
24/11:30am 26.5 ESE 8 13 1017.0 - 0.0 - - 10 - - - -
24/11:00am 26.3 ESE 9 14 1017.4 - 0.0 - - 10 - - - -
24/10:30am 26.6 SE 10 14 1017.5 - 0.0 - - 10 - - - -
24/10:00am 26.2 SE 11 16 1017.7 - 0.0 - - 10 - - - -
24/09:30am 25.9 SE 12 16 1017.5 - 0.0 - - 10 - - - -
24/09:00am 24.8 SSE 8 11 1017.4 - 0.0 - - 10 - - - -
24/08:30am 23.4 S 5 6 1017.5 - 0.0 - - 10 - - - -
24/08:00am 21.4 S 4 5 1017.5 - 0.0 - - 10 - - - -
24/07:30am 19.7 SSW 4 4 1017.4 - 0.0 - - 10 - - - -
24/07:00am 18.8 SSW 3 5 1017.2 - 0.0 - Partly cloudy 10 - - - -
24/06:30am 19.0 CALM 0 0 1017.1 - 0.0 - Partly cloudy 10 - - - -
24/06:00am 18.8 CALM 0 0 1016.9 - 0.0 - Mostly cloudy 10 - - - -
24/05:30am 19.6 CALM 0 3 1016.9 - 0.0 - Partly cloudy 10 - - - -
24/05:00am 19.7 S 3 5 1016.6 - 0.0 - Cloudy 10 - - - -
24/04:30am 19.6 S 4 4 1016.8 - 0.0 - Cloudy 10 - - - -
24/04:00am 19.4 SSW 5 5 1016.7 - 0.0 - Cloudy 10 - - - -
24/03:30am 19.8 CALM 0 0 1017.0 - 0.0 - Cloudy 10 - - - -
24/03:00am 19.5 CALM 0 0 1017.4 - 0.0 - Cloudy 10 - - - -
24/02:30am 19.7 CALM 0 0 1017.4 - 0.0 - Cloudy 10 - - - -
24/02:00am 20.0 CALM 0 0 1017.4 - 0.0 - Cloudy 10 - - - -
24/01:30am 20.1 S 5 6 1017.4 - 0.0 - Cloudy 10 - - - -
24/01:00am 19.9 SW 6 7 1017.7 - 0.0 - Cloudy 10 - - - -
24/12:30am 19.8 SW 5 5 1017.8 - 0.0 - Partly cloudy 10 - - - -
24/12:00am 20.4 S 5 6 1017.8 - 0.0 - Mostly cloudy 10 - - - -
 
Date/Time
EST
Temp

°C
Wind Pressure Rain
since 9am
mm
Weather Cloud Vis
km
Sea
Height
m
Swell
Dir
 
Speed
knots
Gust
knots
hPa Trend Height
m
Period
s
Dir
23/11:30pm 20.6 WSW 2 3 1018.5 - 0.0 - Cloudy 10 - - - -
23/11:00pm 21.0 WSW 3 4 1018.5 - 0.0 - Cloudy 10 - - - -
23/10:30pm 21.5 S 5 7 1018.5 - 0.0 - Cloudy 10 - - - -
23/10:00pm 21.7 S 7 9 1018.4 - 0.0 - Cloudy 10 - - - -
23/09:30pm 21.8 S 6 9 1018.4 - 0.0 - - 10 - - - -
23/09:00pm 21.9 SSE 7 9 1018.2 - 0.0 - Cloudy 10 - - - -

Other Formats:

Comma delimited format used in spreadsheet applications
http://www.bom.gov.au/fwo/IDQ60701/IDQ60701.94365.axf

JavaScript Object Notation format (JSON) in row-major order
http://www.bom.gov.au/fwo/IDQ60701/IDQ60701.94365.json